Princeton, Nebraska
Current Conditions -  °F | °C
As of 9:54 PM on Thursday 20 Nov 2014 (Local Time) from KLNK Reporting Station
Clear Clear  
Wind Chill: 13°   Ceiling: Unl
Heat Index: 22°   Visibility: 9mi
Dew Point: 16°   Wind: 7mph
Humidity: 78%   Direction: 110°ESE
Pressure: 30.24"   Gusts: NA
Location:  40.6351°N, 96.7488°W
Report Text: KLNK 210354Z 11006KT 9SM CLR M06/M09 A3024 RMK AO2 SLP258 T10561089
Loading
Personal Weather Stations






























Interactive Weather Map New forecast layout! Learn more

10-Day Weather Forecast

Advertisements
Track Severe Weather on mobile